createdAt,value
2023-03-14T00:00:35.004Z,11.82
2023-03-14T00:03:14.196Z,11.57
2023-03-14T00:06:20.369Z,12.90
2023-03-14T00:09:07.729Z,14.68
2023-03-14T00:12:06.497Z,12.38
2023-03-14T00:14:33.529Z,13.23
2023-03-14T00:17:03.431Z,11.55
2023-03-14T00:19:31.998Z,15.57
2023-03-14T00:22:05.097Z,11.98
2023-03-14T00:24:38.956Z,12.48
2023-03-14T00:27:15.181Z,12.23
2023-03-14T00:29:51.368Z,14.98
2023-03-14T00:35:25.784Z,10.80
2023-03-14T00:38:06.017Z,14.82
2023-03-14T00:40:41.871Z,13.23
2023-03-14T00:43:43.660Z,12.98
2023-03-14T00:50:07.163Z,10.80
2023-03-14T00:52:43.356Z,9.52
2023-03-14T00:55:12.882Z,8.20
2023-03-14T00:58:08.641Z,4.50
2023-03-14T01:00:58.896Z,3.58
2023-03-14T01:03:47.133Z,5.15
2023-03-14T01:06:24.832Z,3.28
2023-03-14T01:08:59.924Z,3.50
2023-03-14T01:12:08.997Z,2.70
2023-03-14T01:14:58.404Z,3.65
2023-03-14T01:18:10.742Z,3.00
2023-03-14T01:21:15.807Z,2.70
2023-03-14T01:24:02.810Z,3.17
2023-03-14T01:26:50.402Z,2.75
2023-03-14T01:29:34.841Z,2.83
2023-03-14T01:32:09.568Z,2.80
2023-03-14T01:34:50.733Z,2.78
2023-03-14T01:37:20.089Z,2.50
2023-03-14T01:40:11.946Z,3.00
2023-03-14T01:49:20.747Z,3.10
2023-03-14T01:52:11.813Z,3.17
2023-03-14T01:55:05.912Z,2.22
2023-03-14T01:58:10.944Z,2.97
2023-03-14T02:00:40.294Z,2.60
2023-03-14T02:03:12.617Z,2.58
2023-03-14T02:05:42.149Z,2.05
2023-03-14T02:08:17.372Z,2.40
2023-03-14T02:10:47.083Z,2.80
2023-03-14T02:13:20.994Z,2.70
2023-03-14T02:15:49.342Z,2.33
2023-03-14T02:18:18.303Z,2.33
2023-03-14T02:21:06.426Z,2.40
2023-03-14T02:23:40.112Z,2.30
2023-03-14T02:26:16.111Z,2.33
2023-03-14T02:28:43.304Z,2.50
2023-03-14T02:31:14.712Z,2.80
2023-03-14T02:36:28.684Z,2.42
2023-03-14T02:39:12.206Z,2.78
2023-03-14T02:41:50.661Z,2.42
2023-03-14T02:44:18.954Z,2.42
2023-03-14T02:46:46.979Z,2.80
2023-03-14T02:49:15.528Z,2.38
2023-03-14T02:51:47.592Z,2.13
2023-03-14T02:54:21.856Z,1.85
2023-03-14T02:56:51.779Z,2.25
2023-03-14T02:59:29.558Z,2.30
2023-03-14T03:02:08.504Z,2.20
2023-03-14T03:04:38.598Z,1.92
2023-03-14T03:07:05.550Z,2.80
2023-03-14T03:09:32.443Z,2.25
2023-03-14T03:12:07.372Z,2.13
2023-03-14T03:14:48.922Z,2.22
2023-03-14T03:17:16.422Z,2.28
2023-03-14T03:19:44.043Z,2.60
2023-03-14T03:22:11.336Z,2.17
2023-03-14T03:24:41.340Z,2.25
2023-03-14T03:27:08.483Z,2.10
2023-03-14T03:29:38.653Z,2.10
2023-03-14T03:32:09.092Z,2.13
2023-03-14T03:34:36.505Z,2.65
2023-03-14T03:37:08.385Z,2.60
2023-03-14T03:39:38.100Z,2.22
2023-03-14T03:42:10.094Z,2.08
2023-03-14T03:44:41.306Z,2.20
2023-03-14T03:47:12.941Z,2.50
2023-03-14T03:49:40.195Z,2.40
2023-03-14T03:52:13.696Z,2.30
2023-03-14T03:54:40.731Z,2.15
2023-03-14T03:57:07.655Z,2.50
2023-03-14T03:59:40.028Z,2.10
2023-03-14T04:04:49.470Z,2.30
2023-03-14T04:07:16.535Z,2.20
2023-03-14T04:09:43.516Z,2.33
2023-03-14T04:12:17.007Z,2.22
2023-03-14T04:14:52.348Z,2.22
2023-03-14T04:17:19.797Z,2.55
2023-03-14T04:19:47.896Z,2.33
2023-03-14T04:22:14.841Z,2.20
2023-03-14T04:24:41.723Z,1.90
2023-03-14T04:27:08.716Z,2.00
2023-03-14T04:29:59.006Z,2.28
2023-03-14T04:32:25.859Z,2.40
2023-03-14T04:34:52.916Z,2.03
2023-03-14T04:37:20.161Z,2.22
2023-03-14T04:39:47.036Z,1.92
2023-03-14T04:42:14.116Z,2.33
2023-03-14T04:44:44.099Z,2.40
2023-03-14T04:47:11.192Z,2.22
2023-03-14T04:49:38.077Z,1.95
2023-03-14T04:52:07.528Z,2.10
2023-03-14T04:54:36.217Z,2.00
2023-03-14T04:57:09.048Z,1.98
2023-03-14T04:59:36.016Z,1.98
2023-03-14T05:02:03.285Z,2.15
2023-03-14T05:04:36.858Z,2.05
2023-03-14T05:07:03.917Z,2.42
2023-03-14T05:09:30.871Z,1.75
2023-03-14T05:12:00.644Z,2.13
2023-03-14T05:14:27.686Z,2.60
2023-03-14T05:17:02.631Z,1.98
2023-03-14T05:19:34.173Z,2.28
2023-03-14T05:24:33.042Z,2.47
2023-03-14T05:27:00.114Z,2.35
2023-03-14T05:29:34.193Z,2.53
2023-03-14T05:32:04.258Z,2.60
2023-03-14T05:34:31.209Z,1.90
2023-03-14T05:36:58.498Z,2.28
2023-03-14T05:39:28.852Z,1.98
2023-03-14T05:41:57.218Z,2.15
2023-03-14T05:44:32.635Z,1.83
2023-03-14T05:47:00.118Z,1.77
2023-03-14T05:49:33.580Z,2.30
2023-03-14T05:52:00.504Z,2.38
2023-03-14T05:54:29.185Z,2.00
2023-03-14T05:57:07.080Z,2.33
2023-03-14T05:59:38.350Z,2.10
2023-03-14T06:02:05.302Z,2.65
2023-03-14T06:04:32.683Z,2.60
2023-03-14T06:07:08.886Z,2.10
2023-03-14T06:12:34.251Z,2.50
2023-03-14T06:15:04.558Z,3.08
2023-03-14T06:17:34.012Z,2.17
2023-03-14T06:20:00.954Z,2.35
2023-03-14T06:22:35.509Z,2.60
2023-03-14T06:25:02.602Z,2.60
2023-03-14T06:27:32.534Z,2.50
2023-03-14T06:30:12.955Z,2.63
2023-03-14T06:32:53.438Z,2.65
2023-03-14T06:35:26.746Z,2.47
2023-03-14T06:37:56.955Z,3.40
2023-03-14T06:40:29.340Z,3.17
2023-03-14T06:42:59.024Z,3.13
2023-03-14T06:45:29.092Z,1.90
2023-03-14T06:48:04.298Z,2.38
2023-03-14T06:53:27.203Z,2.88
2023-03-14T06:56:11.100Z,2.80
2023-03-14T06:58:50.541Z,2.83
2023-03-14T07:01:30.978Z,2.65
2023-03-14T07:04:03.881Z,3.03
2023-03-14T07:06:31.801Z,2.92
2023-03-14T07:09:11.646Z,2.72
2023-03-14T07:11:46.740Z,2.90
2023-03-14T07:14:17.340Z,2.72
2023-03-14T07:16:44.307Z,2.65
2023-03-14T07:19:14.509Z,2.85
2023-03-14T07:21:44.853Z,3.15
2023-03-14T07:24:22.107Z,2.80
2023-03-14T07:26:48.963Z,2.58
2023-03-14T07:29:21.163Z,2.53
2023-03-14T07:31:48.642Z,3.53
2023-03-14T07:34:15.704Z,3.38
2023-03-14T07:36:47.445Z,3.05
2023-03-14T07:39:19.623Z,2.90
2023-03-14T07:41:50.718Z,2.50
2023-03-14T07:47:12.899Z,3.00
2023-03-14T07:49:53.808Z,3.08
2023-03-14T07:52:20.833Z,2.70
2023-03-14T07:54:50.354Z,3.55
2023-03-14T07:57:18.867Z,2.67
2023-03-14T07:59:54.959Z,2.63
2023-03-14T08:02:25.339Z,2.95
2023-03-14T08:04:55.343Z,2.63
2023-03-14T08:07:31.832Z,3.05
2023-03-14T08:10:10.718Z,3.28
2023-03-14T08:12:41.655Z,2.60
2023-03-14T08:15:10.167Z,2.65
2023-03-14T08:17:43.282Z,2.72
2023-03-14T08:20:14.846Z,2.70
2023-03-14T08:22:52.883Z,2.60
2023-03-14T08:25:27.500Z,2.63
2023-03-14T08:27:55.977Z,2.42
2023-03-14T08:30:31.041Z,2.60
2023-03-14T08:33:03.956Z,2.22
2023-03-14T08:35:33.205Z,2.75
2023-03-14T08:38:00.821Z,2.58
2023-03-14T08:40:34.099Z,2.75
2023-03-14T08:43:16.113Z,2.70
2023-03-14T08:45:50.014Z,2.85
2023-03-14T08:48:16.994Z,2.42
2023-03-14T08:50:54.715Z,2.60
2023-03-14T08:53:24.686Z,2.90
2023-03-14T08:55:55.591Z,2.80
2023-03-14T08:58:27.581Z,2.67
2023-03-14T09:00:54.597Z,2.85
2023-03-14T09:03:31.780Z,2.60
2023-03-14T09:06:08.064Z,3.28
2023-03-14T09:08:37.376Z,2.78
2023-03-14T09:11:08.795Z,2.92
2023-03-14T09:13:38.867Z,2.58
2023-03-14T09:16:18.657Z,2.75
2023-03-14T09:18:53.819Z,2.88
2023-03-14T09:21:20.839Z,2.95
2023-03-14T09:26:42.628Z,2.83
2023-03-14T09:32:12.500Z,3.00
2023-03-14T09:34:44.741Z,2.70
2023-03-14T09:39:47.890Z,2.60
2023-03-14T09:42:33.069Z,2.83
2023-03-14T09:45:11.882Z,2.13
2023-03-14T09:47:58.513Z,1.90
2023-03-14T09:50:56.779Z,2.58
2023-03-14T09:53:40.678Z,2.00
2023-03-14T09:56:30.103Z,2.30
2023-03-14T09:59:07.992Z,2.03
2023-03-14T10:01:41.423Z,2.08
2023-03-14T10:04:15.429Z,2.08
2023-03-14T10:06:49.669Z,1.98
2023-03-14T10:09:28.316Z,2.20
2023-03-14T10:12:09.726Z,1.90
2023-03-14T10:14:45.349Z,1.73
2023-03-14T10:17:16.468Z,1.70
2023-03-14T10:20:06.528Z,1.85
2023-03-14T10:22:34.019Z,1.85
2023-03-14T10:25:36.437Z,2.03
2023-03-14T10:28:27.702Z,1.98
2023-03-14T10:30:58.763Z,1.58
2023-03-14T10:33:28.614Z,1.92
2023-03-14T10:36:01.843Z,1.75
2023-03-14T10:38:32.710Z,1.90
2023-03-14T10:41:05.014Z,1.58
2023-03-14T10:46:25.515Z,1.58
2023-03-14T10:49:04.174Z,1.50
2023-03-14T10:51:39.312Z,1.20
2023-03-14T10:54:31.755Z,1.30
2023-03-14T10:57:05.650Z,1.52
2023-03-14T10:59:46.265Z,1.35
2023-03-14T11:02:38.490Z,1.50
2023-03-14T11:05:57.929Z,1.60
2023-03-14T11:08:40.378Z,1.25
2023-03-14T11:11:26.467Z,1.17
2023-03-14T11:14:03.959Z,1.38
2023-03-14T11:16:36.960Z,1.30
2023-03-14T11:19:41.650Z,1.25
2023-03-14T11:22:20.792Z,1.42
2023-03-14T11:25:49.318Z,0.98
2023-03-14T11:28:27.917Z,1.27
2023-03-14T11:31:39.474Z,1.20
2023-03-14T11:34:36.123Z,1.13
2023-03-14T11:37:47.238Z,1.40
2023-03-14T11:40:29.131Z,1.30
2023-03-14T11:43:33.200Z,1.25
2023-03-14T11:46:34.016Z,1.33
2023-03-14T11:49:37.883Z,1.27
2023-03-14T11:52:39.941Z,1.40
2023-03-14T11:55:31.808Z,1.38
2023-03-14T11:58:20.770Z,1.30
2023-03-14T12:00:51.661Z,1.42
2023-03-14T12:03:48.388Z,1.85
2023-03-14T12:06:47.862Z,2.03
2023-03-14T12:09:28.456Z,1.90
2023-03-14T12:12:13.370Z,3.22
2023-03-14T12:14:55.842Z,3.25
2023-03-14T12:17:44.292Z,3.30
2023-03-14T12:20:25.890Z,3.50
2023-03-14T12:23:06.172Z,3.30
2023-03-14T12:26:04.122Z,3.90
2023-03-14T12:31:37.302Z,4.30
2023-03-14T12:34:18.276Z,4.50
2023-03-14T12:36:57.115Z,4.40
2023-03-14T12:39:53.766Z,4.82
2023-03-14T12:42:45.923Z,5.00
2023-03-14T12:45:18.560Z,4.45
2023-03-14T12:47:54.958Z,4.57
2023-03-14T12:50:35.152Z,4.20
2023-03-14T12:53:30.267Z,4.47
2023-03-14T12:56:32.334Z,5.43
2023-03-14T12:59:11.345Z,5.70
2023-03-14T13:01:55.665Z,5.00
2023-03-14T13:04:41.642Z,5.28
2023-03-14T13:08:07.822Z,5.30
2023-03-14T13:11:06.121Z,5.70
2023-03-14T13:13:37.009Z,5.47
2023-03-14T13:16:15.522Z,5.90
2023-03-14T13:18:52.430Z,5.65
2023-03-14T13:21:23.482Z,4.68
2023-03-14T13:24:22.118Z,4.78
2023-03-14T13:26:49.075Z,5.75
2023-03-14T13:29:21.335Z,6.75
2023-03-14T13:31:59.100Z,5.75
2023-03-14T13:34:36.977Z,5.47
2023-03-14T13:37:03.875Z,7.10
2023-03-14T13:39:38.611Z,7.38
2023-03-14T13:42:06.478Z,5.47
2023-03-14T13:44:39.591Z,5.78
2023-03-14T13:47:17.934Z,5.72
2023-03-14T13:49:45.765Z,6.88
2023-03-14T13:52:32.211Z,5.53
2023-03-14T13:58:08.924Z,6.63
2023-03-14T14:01:03.886Z,6.28
2023-03-14T14:03:38.676Z,7.10
2023-03-14T14:06:11.351Z,8.60
2023-03-14T14:08:42.341Z,6.93
2023-03-14T14:11:28.055Z,7.53
2023-03-14T14:14:00.749Z,6.18
2023-03-14T14:16:42.310Z,6.15
2023-03-14T14:21:55.178Z,7.00
2023-03-14T14:24:50.920Z,7.22
2023-03-14T14:27:37.105Z,7.80
2023-03-14T14:30:14.010Z,7.82
2023-03-14T14:32:43.936Z,7.95
2023-03-14T14:35:26.790Z,8.10
2023-03-14T14:37:57.417Z,7.57
2023-03-14T14:40:33.532Z,8.88
2023-03-14T14:43:09.330Z,7.72
2023-03-14T14:45:40.681Z,8.38
2023-03-14T14:51:06.185Z,8.68
2023-03-14T14:53:44.526Z,7.72
2023-03-14T14:56:27.476Z,8.13
2023-03-14T14:59:01.004Z,7.75
2023-03-14T15:01:38.580Z,8.00
2023-03-14T15:04:14.945Z,7.15
2023-03-14T15:06:50.988Z,7.97
2023-03-14T15:09:31.370Z,7.38
2023-03-14T15:12:10.130Z,8.50
2023-03-14T15:14:36.954Z,6.70
2023-03-14T15:17:18.315Z,6.88
2023-03-14T15:19:45.085Z,6.15
2023-03-14T15:22:15.612Z,5.38
2023-03-14T15:24:43.457Z,6.28
2023-03-14T15:27:18.367Z,5.88
2023-03-14T15:29:48.424Z,6.28
2023-03-14T15:32:19.330Z,6.18
2023-03-14T15:34:46.187Z,5.22
2023-03-14T15:37:15.772Z,6.88
2023-03-14T15:39:57.377Z,5.10
2023-03-14T15:42:24.211Z,4.87
2023-03-14T15:44:54.069Z,4.90
2023-03-14T15:47:26.287Z,4.30
2023-03-14T15:49:56.610Z,4.70
2023-03-14T15:55:05.891Z,4.43
2023-03-14T15:57:34.391Z,5.55
2023-03-14T16:00:01.332Z,4.70
2023-03-14T16:02:31.215Z,4.85
2023-03-14T16:04:57.988Z,5.28
2023-03-14T16:07:24.865Z,5.07
2023-03-14T16:09:51.642Z,5.78
2023-03-14T16:12:20.585Z,5.05
2023-03-14T16:14:49.813Z,5.45
2023-03-14T16:17:19.390Z,5.10
2023-03-14T16:19:48.243Z,4.32
2023-03-14T16:22:15.936Z,4.97
2023-03-14T16:24:45.706Z,4.82
2023-03-14T16:27:18.610Z,4.82
2023-03-14T16:30:16.826Z,4.82
2023-03-14T16:32:47.224Z,4.60
2023-03-14T16:35:21.589Z,4.72
2023-03-14T16:37:57.131Z,5.32
2023-03-14T16:40:34.522Z,4.63
2023-03-14T16:43:16.041Z,6.20
2023-03-14T16:45:44.705Z,5.97
2023-03-14T16:48:17.107Z,5.72
2023-03-14T16:53:27.284Z,5.82
2023-03-14T16:56:11.374Z,5.40
2023-03-14T16:58:45.919Z,5.47
2023-03-14T17:03:48.304Z,5.82
2023-03-14T17:06:19.908Z,4.82
2023-03-14T17:08:46.792Z,5.67
2023-03-14T17:11:30.181Z,5.25
2023-03-14T17:14:04.157Z,5.53
2023-03-14T17:16:32.895Z,4.57
2023-03-14T17:19:04.659Z,5.10
2023-03-14T17:21:31.916Z,5.03
2023-03-14T17:23:58.654Z,4.55
2023-03-14T17:26:25.420Z,6.32
2023-03-14T17:28:55.559Z,4.45
2023-03-14T17:31:33.093Z,5.53
2023-03-14T17:34:05.370Z,4.72
2023-03-14T17:36:33.008Z,4.33
2023-03-14T17:39:00.940Z,5.68
2023-03-14T17:41:31.901Z,5.55
2023-03-14T17:44:05.224Z,4.88
2023-03-14T17:46:32.275Z,5.60
2023-03-14T17:48:59.087Z,4.80
2023-03-14T17:51:25.868Z,4.50
2023-03-14T17:54:09.146Z,5.85
2023-03-14T17:56:37.218Z,4.53
2023-03-14T17:59:08.009Z,4.55
2023-03-14T18:04:17.852Z,5.57
2023-03-14T18:06:47.841Z,5.40
2023-03-14T18:09:17.903Z,5.35
2023-03-14T18:11:44.949Z,5.30
2023-03-14T18:14:21.230Z,5.25
2023-03-14T18:16:54.510Z,4.80
2023-03-14T18:19:21.619Z,4.78
2023-03-14T18:21:48.497Z,5.45
2023-03-14T18:24:15.380Z,5.45
2023-03-14T18:26:48.638Z,4.88
2023-03-14T18:29:21.724Z,5.40
2023-03-14T18:31:56.092Z,4.70
2023-03-14T18:34:22.782Z,5.40
2023-03-14T18:36:49.910Z,6.10
2023-03-14T18:39:16.748Z,6.40
2023-03-14T18:41:49.074Z,5.43
2023-03-14T18:46:42.781Z,5.63
2023-03-14T18:49:20.189Z,6.53
2023-03-14T18:51:47.622Z,6.60
2023-03-14T18:54:19.404Z,6.10
2023-03-14T18:56:50.298Z,6.03
2023-03-14T18:59:20.094Z,6.13
2023-03-14T19:01:50.036Z,6.32
2023-03-14T19:04:19.462Z,4.75
2023-03-14T19:06:55.146Z,6.03
2023-03-14T19:09:21.994Z,5.10
2023-03-14T19:11:53.014Z,7.10
2023-03-14T19:14:23.625Z,6.72
2023-03-14T19:16:50.684Z,6.45
2023-03-14T19:19:22.149Z,6.00
2023-03-14T19:21:51.473Z,6.28
2023-03-14T19:24:23.127Z,8.05
2023-03-14T19:26:51.174Z,8.48
2023-03-14T19:29:23.021Z,6.50
2023-03-14T19:31:51.570Z,8.70
2023-03-14T19:34:24.441Z,6.60
2023-03-14T19:36:55.707Z,6.88
2023-03-14T19:39:22.427Z,8.63
2023-03-14T19:41:49.326Z,8.07
2023-03-14T19:44:16.356Z,6.70
2023-03-14T19:46:43.602Z,9.35
2023-03-14T19:49:11.714Z,7.20
2023-03-14T19:51:41.540Z,11.63
2023-03-14T19:54:14.924Z,11.27
2023-03-14T19:56:44.827Z,9.23
2023-03-14T19:59:20.861Z,10.43
2023-03-14T20:01:51.090Z,7.45
2023-03-14T20:04:17.891Z,10.65
2023-03-14T20:06:47.979Z,8.25
2023-03-14T20:09:14.819Z,7.88
2023-03-14T20:11:57.533Z,12.20
2023-03-14T20:14:26.222Z,14.27
2023-03-14T20:17:09.068Z,12.23
2023-03-14T20:19:37.688Z,10.75
2023-03-14T20:22:18.444Z,16.50
2023-03-14T20:24:49.755Z,13.38
2023-03-14T20:27:16.985Z,14.35
2023-03-14T20:29:46.945Z,13.07
2023-03-14T20:32:25.165Z,14.35
2023-03-14T20:34:55.293Z,14.57
2023-03-14T20:37:23.451Z,13.75
2023-03-14T20:39:51.362Z,12.35
2023-03-14T20:42:25.325Z,11.57
2023-03-14T20:44:55.253Z,14.27
2023-03-14T20:47:22.141Z,15.57
2023-03-14T20:49:51.565Z,16.40
2023-03-14T20:52:18.868Z,16.75
2023-03-14T20:54:46.835Z,15.75
2023-03-14T20:57:15.793Z,17.90
2023-03-14T20:59:42.652Z,17.05
2023-03-14T21:05:02.333Z,14.68
2023-03-14T21:10:17.877Z,12.15
2023-03-14T21:12:51.529Z,15.15
2023-03-14T21:15:20.390Z,14.65
2023-03-14T21:18:28.184Z,15.32
2023-03-14T21:20:57.952Z,14.10
2023-03-14T21:23:27.952Z,12.45
2023-03-14T21:26:07.003Z,13.02
2023-03-14T21:28:47.627Z,14.25
2023-03-14T21:33:58.248Z,13.98
2023-03-14T21:36:25.195Z,13.27
2023-03-14T21:39:11.532Z,14.63
2023-03-14T21:41:43.436Z,14.57
2023-03-14T21:44:13.972Z,11.20
2023-03-14T21:46:46.303Z,15.48
2023-03-14T21:49:41.365Z,15.35
2023-03-14T21:52:14.201Z,16.65
2023-03-14T21:54:51.424Z,16.85
2023-03-14T21:57:18.131Z,15.65
2023-03-14T21:59:46.754Z,16.27
2023-03-14T22:02:18.696Z,17.67
2023-03-14T22:04:52.437Z,18.55
2023-03-14T22:07:21.629Z,14.55
2023-03-14T22:09:50.442Z,17.85
2023-03-14T22:12:29.653Z,17.15
2023-03-14T22:14:56.338Z,15.38
2023-03-14T22:17:23.136Z,15.93
2023-03-14T22:20:01.492Z,15.90
2023-03-14T22:22:37.742Z,17.17
2023-03-14T22:25:09.333Z,15.88
2023-03-14T22:27:36.073Z,17.00
2023-03-14T22:30:03.541Z,16.15
2023-03-14T22:32:53.120Z,17.10
2023-03-14T22:35:21.780Z,15.55
2023-03-14T22:37:51.404Z,18.15
2023-03-14T22:40:19.914Z,15.80
2023-03-14T22:42:48.492Z,18.15
2023-03-14T22:45:49.633Z,16.70
2023-03-14T22:48:16.623Z,17.63
2023-03-14T22:50:46.712Z,17.33
2023-03-14T22:53:25.709Z,17.13
2023-03-14T22:56:04.279Z,18.80
2023-03-14T22:58:31.862Z,18.27
2023-03-14T23:01:01.878Z,16.75
2023-03-14T23:03:35.573Z,17.83
2023-03-14T23:06:11.765Z,17.95
2023-03-14T23:08:41.886Z,16.38
2023-03-14T23:11:17.977Z,17.92
2023-03-14T23:13:54.416Z,17.42
2023-03-14T23:16:30.370Z,19.35
2023-03-14T23:19:08.374Z,18.05
2023-03-14T23:21:38.656Z,18.77
2023-03-14T23:24:08.728Z,14.10
2023-03-14T23:26:38.261Z,18.75
2023-03-14T23:29:08.565Z,17.00
2023-03-14T23:31:37.750Z,17.23
2023-03-14T23:34:04.459Z,13.07
2023-03-14T23:36:31.729Z,18.73
2023-03-14T23:39:01.306Z,16.73
2023-03-14T23:41:30.441Z,18.80
2023-03-14T23:43:58.901Z,18.20
2023-03-14T23:46:35.802Z,18.27
2023-03-14T23:49:02.597Z,18.05
2023-03-14T23:51:30.421Z,18.63
2023-03-14T23:54:00.054Z,17.20
2023-03-14T23:56:33.089Z,20.30
2023-03-14T23:59:01.984Z,20.42
